sensor_id;sensor_type;location;lat;lon;timestamp;pressure;altitude;pressure_sealevel;temperature;humidity
8286;BME280;4181;43.416;24.598;2023-02-21T00:01:38;100246.13;;;11.13;100.00
8286;BME280;4181;43.416;24.598;2023-02-21T00:04:21;100251.25;;;11.26;100.00
8286;BME280;4181;43.416;24.598;2023-02-21T00:07:05;100235.84;;;11.20;100.00
8286;BME280;4181;43.416;24.598;2023-02-21T00:09:49;100227.22;;;11.28;100.00
8286;BME280;4181;43.416;24.598;2023-02-21T00:12:33;100218.03;;;11.34;100.00
8286;BME280;4181;43.416;24.598;2023-02-21T00:15:17;100236.75;;;11.47;100.00
8286;BME280;4181;43.416;24.598;2023-02-21T00:18:01;100199.53;;;11.41;100.00
8286;BME280;4181;43.416;24.598;2023-02-21T00:20:45;100219.59;;;11.52;100.00
8286;BME280;4181;43.416;24.598;2023-02-21T00:23:33;100217.44;;;11.54;100.00
8286;BME280;4181;43.416;24.598;2023-02-21T00:26:18;100208.09;;;11.50;100.00
8286;BME280;4181;43.416;24.598;2023-02-21T00:29:02;100215.00;;;11.58;100.00
8286;BME280;4181;43.416;24.598;2023-02-21T00:31:46;100207.47;;;11.65;100.00
8286;BME280;4181;43.416;24.598;2023-02-21T00:34:30;100186.44;;;11.65;100.00
8286;BME280;4181;43.416;24.598;2023-02-21T00:37:13;100188.94;;;11.72;100.00
8286;BME280;4181;43.416;24.598;2023-02-21T00:39:57;100192.19;;;11.69;100.00
8286;BME280;4181;43.416;24.598;2023-02-21T00:42:41;100182.38;;;11.68;100.00
8286;BME280;4181;43.416;24.598;2023-02-21T00:45:25;100176.25;;;11.61;100.00
8286;BME280;4181;43.416;24.598;2023-02-21T00:48:09;100176.59;;;11.64;100.00
8286;BME280;4181;43.416;24.598;2023-02-21T00:50:53;100163.75;;;11.65;100.00
8286;BME280;4181;43.416;24.598;2023-02-21T00:53:37;100171.34;;;11.63;100.00
8286;BME280;4181;43.416;24.598;2023-02-21T00:56:21;100167.03;;;11.67;100.00
8286;BME280;4181;43.416;24.598;2023-02-21T00:59:05;100166.94;;;11.62;100.00
8286;BME280;4181;43.416;24.598;2023-02-21T01:01:49;100159.94;;;11.66;100.00
8286;BME280;4181;43.416;24.598;2023-02-21T01:04:33;100150.09;;;11.65;100.00
8286;BME280;4181;43.416;24.598;2023-02-21T01:07:17;100158.34;;;11.70;100.00
8286;BME280;4181;43.416;24.598;2023-02-21T01:10:00;100149.03;;;11.71;100.00
8286;BME280;4181;43.416;24.598;2023-02-21T01:12:45;100136.88;;;11.83;100.00
8286;BME280;4181;43.416;24.598;2023-02-21T01:15:29;100118.47;;;11.74;100.00
8286;BME280;4181;43.416;24.598;2023-02-21T01:18:13;100131.16;;;11.85;100.00
8286;BME280;4181;43.416;24.598;2023-02-21T01:20:57;100142.19;;;11.95;100.00
8286;BME280;4181;43.416;24.598;2023-02-21T01:23:41;100128.25;;;11.96;100.00
8286;BME280;4181;43.416;24.598;2023-02-21T01:26:24;100138.34;;;11.96;100.00
8286;BME280;4181;43.416;24.598;2023-02-21T01:29:08;100122.97;;;11.85;100.00
8286;BME280;4181;43.416;24.598;2023-02-21T01:31:52;100134.44;;;11.87;100.00
8286;BME280;4181;43.416;24.598;2023-02-21T01:34:36;100128.22;;;11.91;100.00
8286;BME280;4181;43.416;24.598;2023-02-21T01:37:20;100131.00;;;11.96;100.00
8286;BME280;4181;43.416;24.598;2023-02-21T01:40:04;100127.69;;;11.94;100.00
8286;BME280;4181;43.416;24.598;2023-02-21T01:42:48;100123.84;;;11.95;100.00
8286;BME280;4181;43.416;24.598;2023-02-21T01:45:46;100123.59;;;11.97;100.00
8286;BME280;4181;43.416;24.598;2023-02-21T01:48:32;100114.28;;;11.93;100.00
8286;BME280;4181;43.416;24.598;2023-02-21T01:51:18;100123.75;;;11.85;100.00
8286;BME280;4181;43.416;24.598;2023-02-21T01:54:04;100113.81;;;11.74;100.00
8286;BME280;4181;43.416;24.598;2023-02-21T01:56:48;100101.84;;;11.80;100.00
8286;BME280;4181;43.416;24.598;2023-02-21T01:59:32;100113.31;;;11.77;100.00
8286;BME280;4181;43.416;24.598;2023-02-21T02:05:10;100099.38;;;11.79;100.00
8286;BME280;4181;43.416;24.598;2023-02-21T02:07:54;100097.53;;;11.84;100.00
8286;BME280;4181;43.416;24.598;2023-02-21T02:10:38;100078.28;;;11.74;100.00
8286;BME280;4181;43.416;24.598;2023-02-21T02:16:43;100078.91;;;11.81;100.00
8286;BME280;4181;43.416;24.598;2023-02-21T02:35:12;100090.06;;;12.06;100.00
8286;BME280;4181;43.416;24.598;2023-02-21T02:43:04;100087.84;;;12.03;100.00
8286;BME280;4181;43.416;24.598;2023-02-21T02:50:59;100073.56;;;11.96;100.00
8286;BME280;4181;43.416;24.598;2023-02-21T02:53:28;100073.91;;;12.05;100.00
8286;BME280;4181;43.416;24.598;2023-02-21T02:56:01;100076.06;;;12.03;100.00
8286;BME280;4181;43.416;24.598;2023-02-21T02:58:32;100073.38;;;12.08;100.00
8286;BME280;4181;43.416;24.598;2023-02-21T03:06:54;100073.41;;;12.13;100.00
8286;BME280;4181;43.416;24.598;2023-02-21T03:09:30;100077.78;;;12.14;100.00
8286;BME280;4181;43.416;24.598;2023-02-21T03:15:21;100081.59;;;12.08;100.00
8286;BME280;4181;43.416;24.598;2023-02-21T03:18:06;100072.78;;;12.01;100.00
8286;BME280;4181;43.416;24.598;2023-02-21T03:20:34;100076.06;;;12.03;100.00
8286;BME280;4181;43.416;24.598;2023-02-21T03:23:02;100071.41;;;11.98;100.00
8286;BME280;4181;43.416;24.598;2023-02-21T03:25:30;100069.50;;;12.04;100.00
8286;BME280;4181;43.416;24.598;2023-02-21T03:27:59;100086.19;;;12.02;100.00
8286;BME280;4181;43.416;24.598;2023-02-21T03:30:27;100073.78;;;11.90;100.00
8286;BME280;4181;43.416;24.598;2023-02-21T03:32:53;100077.16;;;12.02;100.00
8286;BME280;4181;43.416;24.598;2023-02-21T03:35:20;100074.06;;;11.88;100.00
8286;BME280;4181;43.416;24.598;2023-02-21T03:37:48;100072.69;;;11.91;100.00
8286;BME280;4181;43.416;24.598;2023-02-21T03:40:31;100070.00;;;11.96;100.00
8286;BME280;4181;43.416;24.598;2023-02-21T03:42:58;100062.38;;;11.98;100.00
8286;BME280;4181;43.416;24.598;2023-02-21T03:45:24;100077.84;;;11.87;100.00
8286;BME280;4181;43.416;24.598;2023-02-21T03:47:50;100076.00;;;11.93;100.00
8286;BME280;4181;43.416;24.598;2023-02-21T03:50:15;100070.19;;;11.84;100.00
8286;BME280;4181;43.416;24.598;2023-02-21T03:52:41;100077.31;;;11.90;100.00
8286;BME280;4181;43.416;24.598;2023-02-21T03:55:07;100065.50;;;11.80;100.00
8286;BME280;4181;43.416;24.598;2023-02-21T03:57:33;100080.84;;;11.86;100.00
8286;BME280;4181;43.416;24.598;2023-02-21T03:59:58;100083.84;;;11.84;100.00
8286;BME280;4181;43.416;24.598;2023-02-21T04:02:24;100073.19;;;11.83;100.00
8286;BME280;4181;43.416;24.598;2023-02-21T04:04:50;100062.50;;;11.81;100.00
8286;BME280;4181;43.416;24.598;2023-02-21T04:07:16;100083.38;;;11.92;100.00
8286;BME280;4181;43.416;24.598;2023-02-21T04:09:42;100056.69;;;11.73;100.00
8286;BME280;4181;43.416;24.598;2023-02-21T04:12:09;100053.41;;;11.71;100.00
8286;BME280;4181;43.416;24.598;2023-02-21T04:14:34;100072.91;;;11.84;100.00
8286;BME280;4181;43.416;24.598;2023-02-21T04:16:59;100081.38;;;11.83;100.00
8286;BME280;4181;43.416;24.598;2023-02-21T04:19:25;100069.38;;;11.89;100.00
8286;BME280;4181;43.416;24.598;2023-02-21T04:21:50;100057.34;;;11.85;100.00
8286;BME280;4181;43.416;24.598;2023-02-21T04:24:16;100070.97;;;11.80;100.00
8286;BME280;4181;43.416;24.598;2023-02-21T04:26:41;100070.44;;;11.83;100.00
8286;BME280;4181;43.416;24.598;2023-02-21T04:29:08;100064.69;;;11.79;100.00
8286;BME280;4181;43.416;24.598;2023-02-21T04:31:33;100061.28;;;11.67;100.00
8286;BME280;4181;43.416;24.598;2023-02-21T04:33:59;100054.44;;;11.65;100.00
8286;BME280;4181;43.416;24.598;2023-02-21T04:36:25;100059.16;;;11.74;100.00
8286;BME280;4181;43.416;24.598;2023-02-21T04:38:51;100042.72;;;11.69;100.00
8286;BME280;4181;43.416;24.598;2023-02-21T04:41:17;100010.31;;;11.51;100.00
8286;BME280;4181;43.416;24.598;2023-02-21T04:43:43;100038.41;;;11.73;100.00
8286;BME280;4181;43.416;24.598;2023-02-21T04:46:09;100023.28;;;11.66;100.00
8286;BME280;4181;43.416;24.598;2023-02-21T04:48:35;100030.75;;;11.75;100.00
8286;BME280;4181;43.416;24.598;2023-02-21T04:51:00;100039.59;;;11.87;100.00
8286;BME280;4181;43.416;24.598;2023-02-21T04:53:26;100027.53;;;11.83;100.00
8286;BME280;4181;43.416;24.598;2023-02-21T04:55:51;100030.25;;;11.78;100.00
8286;BME280;4181;43.416;24.598;2023-02-21T04:58:17;100009.44;;;11.77;100.00
8286;BME280;4181;43.416;24.598;2023-02-21T05:00:42;100013.06;;;11.88;100.00
8286;BME280;4181;43.416;24.598;2023-02-21T05:03:08;100018.09;;;12.01;100.00
8286;BME280;4181;43.416;24.598;2023-02-21T05:05:33;100007.13;;;11.96;100.00
8286;BME280;4181;43.416;24.598;2023-02-21T05:07:59;100009.81;;;11.91;100.00
8286;BME280;4181;43.416;24.598;2023-02-21T05:10:24;100018.91;;;12.01;100.00
8286;BME280;4181;43.416;24.598;2023-02-21T05:12:50;100009.88;;;12.01;100.00
8286;BME280;4181;43.416;24.598;2023-02-21T05:15:15;99996.75;;;11.98;100.00
8286;BME280;4181;43.416;24.598;2023-02-21T05:17:40;99997.03;;;12.01;100.00
8286;BME280;4181;43.416;24.598;2023-02-21T05:20:06;100000.31;;;11.98;100.00
8286;BME280;4181;43.416;24.598;2023-02-21T05:22:37;100003.88;;;12.04;100.00
8286;BME280;4181;43.416;24.598;2023-02-21T05:27:59;100000.09;;;12.10;100.00
8286;BME280;4181;43.416;24.598;2023-02-21T05:30:24;99995.38;;;12.00;100.00
8286;BME280;4181;43.416;24.598;2023-02-21T05:32:50;100000.66;;;12.12;100.00
8286;BME280;4181;43.416;24.598;2023-02-21T05:35:16;99999.63;;;12.23;100.00
8286;BME280;4181;43.416;24.598;2023-02-21T05:37:42;100002.69;;;12.31;100.00
8286;BME280;4181;43.416;24.598;2023-02-21T05:40:09;99996.44;;;12.41;100.00
8286;BME280;4181;43.416;24.598;2023-02-21T05:42:36;99990.13;;;12.40;100.00
8286;BME280;4181;43.416;24.598;2023-02-21T05:45:02;99991.56;;;12.53;100.00
8286;BME280;4181;43.416;24.598;2023-02-21T05:47:32;99990.59;;;12.84;100.00
8286;BME280;4181;43.416;24.598;2023-02-21T05:49:58;99982.72;;;13.08;100.00
8286;BME280;4181;43.416;24.598;2023-02-21T05:52:24;99977.00;;;13.39;100.00
8286;BME280;4181;43.416;24.598;2023-02-21T05:54:50;99954.78;;;13.76;100.00
8286;BME280;4181;43.416;24.598;2023-02-21T05:57:15;99965.94;;;14.20;100.00
8286;BME280;4181;43.416;24.598;2023-02-21T05:59:41;99963.97;;;14.45;100.00
8286;BME280;4181;43.416;24.598;2023-02-21T06:02:06;99930.78;;;14.42;100.00
8286;BME280;4181;43.416;24.598;2023-02-21T06:04:32;99930.22;;;14.40;100.00
8286;BME280;4181;43.416;24.598;2023-02-21T06:06:57;99934.25;;;14.57;100.00
8286;BME280;4181;43.416;24.598;2023-02-21T06:09:22;99941.50;;;14.92;100.00
8286;BME280;4181;43.416;24.598;2023-02-21T06:11:48;99940.63;;;15.35;100.00
8286;BME280;4181;43.416;24.598;2023-02-21T06:14:18;99935.38;;;15.72;100.00
8286;BME280;4181;43.416;24.598;2023-02-21T06:16:44;99908.00;;;15.86;100.00
8286;BME280;4181;43.416;24.598;2023-02-21T06:19:11;99945.59;;;15.95;100.00
8286;BME280;4181;43.416;24.598;2023-02-21T06:21:37;99947.94;;;15.83;100.00
8286;BME280;4181;43.416;24.598;2023-02-21T06:24:04;99952.25;;;15.61;100.00
8286;BME280;4181;43.416;24.598;2023-02-21T06:26:30;99934.38;;;15.92;100.00
8286;BME280;4181;43.416;24.598;2023-02-21T06:28:56;99932.84;;;16.04;100.00
8286;BME280;4181;43.416;24.598;2023-02-21T06:31:21;99933.91;;;16.08;100.00
8286;BME280;4181;43.416;24.598;2023-02-21T06:33:48;99940.94;;;16.19;100.00
8286;BME280;4181;43.416;24.598;2023-02-21T06:36:17;99939.53;;;15.98;100.00
8286;BME280;4181;43.416;24.598;2023-02-21T06:38:45;99913.75;;;15.61;100.00
8286;BME280;4181;43.416;24.598;2023-02-21T06:41:14;99961.31;;;15.61;100.00
8286;BME280;4181;43.416;24.598;2023-02-21T06:43:39;99936.72;;;15.46;100.00
8286;BME280;4181;43.416;24.598;2023-02-21T06:46:05;99931.69;;;15.53;100.00
8286;BME280;4181;43.416;24.598;2023-02-21T06:48:30;99946.00;;;15.84;100.00
8286;BME280;4181;43.416;24.598;2023-02-21T06:50:56;99941.72;;;15.96;100.00
8286;BME280;4181;43.416;24.598;2023-02-21T06:53:21;99927.19;;;15.91;100.00
8286;BME280;4181;43.416;24.598;2023-02-21T06:55:47;99948.31;;;16.00;100.00
8286;BME280;4181;43.416;24.598;2023-02-21T06:58:12;99943.78;;;16.09;100.00
8286;BME280;4181;43.416;24.598;2023-02-21T07:00:38;99934.59;;;15.95;100.00
8286;BME280;4181;43.416;24.598;2023-02-21T07:03:04;99947.59;;;16.13;100.00
8286;BME280;4181;43.416;24.598;2023-02-21T07:05:30;99924.06;;;16.26;100.00
8286;BME280;4181;43.416;24.598;2023-02-21T07:07:59;99910.69;;;16.62;100.00
8286;BME280;4181;43.416;24.598;2023-02-21T07:10:25;99917.94;;;16.95;100.00
8286;BME280;4181;43.416;24.598;2023-02-21T07:12:50;99906.81;;;17.00;100.00
8286;BME280;4181;43.416;24.598;2023-02-21T07:15:16;99908.50;;;17.33;100.00
8286;BME280;4181;43.416;24.598;2023-02-21T07:17:41;99916.59;;;17.43;100.00
8286;BME280;4181;43.416;24.598;2023-02-21T07:20:07;99903.19;;;17.55;100.00
8286;BME280;4181;43.416;24.598;2023-02-21T07:22:33;99891.81;;;18.02;100.00
8286;BME280;4181;43.416;24.598;2023-02-21T07:24:58;99864.50;;;18.14;100.00
8286;BME280;4181;43.416;24.598;2023-02-21T07:27:24;99862.34;;;18.38;100.00
8286;BME280;4181;43.416;24.598;2023-02-21T07:29:49;99868.84;;;18.69;100.00
8286;BME280;4181;43.416;24.598;2023-02-21T07:32:16;99860.50;;;18.97;100.00
8286;BME280;4181;43.416;24.598;2023-02-21T07:34:42;99871.38;;;19.15;100.00
8286;BME280;4181;43.416;24.598;2023-02-21T07:37:08;99864.50;;;18.90;100.00
8286;BME280;4181;43.416;24.598;2023-02-21T07:39:34;99882.94;;;18.95;100.00
8286;BME280;4181;43.416;24.598;2023-02-21T07:41:59;99865.38;;;18.77;100.00
8286;BME280;4181;43.416;24.598;2023-02-21T07:44:25;99877.59;;;18.49;100.00
8286;BME280;4181;43.416;24.598;2023-02-21T07:46:50;99866.50;;;18.41;100.00
8286;BME280;4181;43.416;24.598;2023-02-21T07:49:16;99869.06;;;18.73;100.00
8286;BME280;4181;43.416;24.598;2023-02-21T07:51:41;99867.50;;;18.80;100.00
8286;BME280;4181;43.416;24.598;2023-02-21T07:54:07;99856.06;;;18.73;100.00
8286;BME280;4181;43.416;24.598;2023-02-21T07:56:32;99854.41;;;19.08;100.00
8286;BME280;4181;43.416;24.598;2023-02-21T07:58:58;99841.50;;;19.48;100.00
8286;BME280;4181;43.416;24.598;2023-02-21T08:01:24;99853.22;;;20.14;100.00
8286;BME280;4181;43.416;24.598;2023-02-21T08:03:50;99835.72;;;20.53;100.00
8286;BME280;4181;43.416;24.598;2023-02-21T08:06:16;99840.69;;;21.07;100.00
8286;BME280;4181;43.416;24.598;2023-02-21T08:08:43;99835.41;;;21.49;100.00
8286;BME280;4181;43.416;24.598;2023-02-21T08:11:09;99823.44;;;21.65;100.00
8286;BME280;4181;43.416;24.598;2023-02-21T08:13:34;99836.94;;;21.84;100.00
8286;BME280;4181;43.416;24.598;2023-02-21T08:15:59;99842.44;;;22.01;100.00
8286;BME280;4181;43.416;24.598;2023-02-21T08:18:25;99837.78;;;22.13;100.00
8286;BME280;4181;43.416;24.598;2023-02-21T08:20:52;99839.34;;;22.31;100.00
8286;BME280;4181;43.416;24.598;2023-02-21T08:23:19;99832.69;;;22.53;100.00
8286;BME280;4181;43.416;24.598;2023-02-21T08:25:45;99832.38;;;22.54;100.00
8286;BME280;4181;43.416;24.598;2023-02-21T08:28:11;99844.91;;;22.61;100.00
8286;BME280;4181;43.416;24.598;2023-02-21T08:30:37;99833.16;;;22.55;100.00
8286;BME280;4181;43.416;24.598;2023-02-21T08:33:03;99820.81;;;22.85;100.00
8286;BME280;4181;43.416;24.598;2023-02-21T08:35:28;99818.78;;;23.15;100.00
8286;BME280;4181;43.416;24.598;2023-02-21T08:37:54;99825.47;;;23.14;100.00
8286;BME280;4181;43.416;24.598;2023-02-21T08:40:22;99824.59;;;23.22;100.00
8286;BME280;4181;43.416;24.598;2023-02-21T08:42:49;99806.81;;;23.47;100.00
8286;BME280;4181;43.416;24.598;2023-02-21T08:45:16;99816.03;;;23.59;100.00
8286;BME280;4181;43.416;24.598;2023-02-21T08:47:43;99810.91;;;23.49;100.00
8286;BME280;4181;43.416;24.598;2023-02-21T08:50:09;99808.91;;;23.38;100.00
8286;BME280;4181;43.416;24.598;2023-02-21T08:52:35;99819.34;;;23.20;100.00
8286;BME280;4181;43.416;24.598;2023-02-21T08:55:00;99829.97;;;23.59;100.00
8286;BME280;4181;43.416;24.598;2023-02-21T08:57:26;99798.16;;;23.60;100.00
8286;BME280;4181;43.416;24.598;2023-02-21T08:59:51;99804.78;;;23.80;100.00
8286;BME280;4181;43.416;24.598;2023-02-21T09:02:19;99809.84;;;24.11;100.00
8286;BME280;4181;43.416;24.598;2023-02-21T09:04:46;99806.94;;;24.19;100.00
8286;BME280;4181;43.416;24.598;2023-02-21T09:07:14;99805.59;;;24.77;100.00
8286;BME280;4181;43.416;24.598;2023-02-21T09:09:40;99809.75;;;24.95;100.00
8286;BME280;4181;43.416;24.598;2023-02-21T09:12:06;99798.84;;;25.06;100.00
8286;BME280;4181;43.416;24.598;2023-02-21T09:14:36;99804.34;;;25.02;100.00
8286;BME280;4181;43.416;24.598;2023-02-21T09:17:03;99790.22;;;24.83;100.00
8286;BME280;4181;43.416;24.598;2023-02-21T09:19:28;99812.56;;;24.59;100.00
8286;BME280;4181;43.416;24.598;2023-02-21T09:21:54;99805.09;;;24.23;100.00
8286;BME280;4181;43.416;24.598;2023-02-21T09:24:24;99824.72;;;24.27;100.00
8286;BME280;4181;43.416;24.598;2023-02-21T09:26:58;99822.47;;;23.96;100.00
8286;BME280;4181;43.416;24.598;2023-02-21T09:29:26;99809.59;;;24.04;100.00
8286;BME280;4181;43.416;24.598;2023-02-21T09:31:52;99822.81;;;23.95;100.00
8286;BME280;4181;43.416;24.598;2023-02-21T09:34:18;99820.88;;;24.07;100.00
8286;BME280;4181;43.416;24.598;2023-02-21T09:36:44;99813.34;;;24.08;100.00
8286;BME280;4181;43.416;24.598;2023-02-21T09:39:11;99802.84;;;24.29;100.00
8286;BME280;4181;43.416;24.598;2023-02-21T09:41:38;99808.91;;;24.43;100.00
8286;BME280;4181;43.416;24.598;2023-02-21T09:44:05;99811.69;;;24.43;100.00
8286;BME280;4181;43.416;24.598;2023-02-21T09:46:48;99800.97;;;24.69;100.00
8286;BME280;4181;43.416;24.598;2023-02-21T09:49:25;99799.72;;;24.94;100.00
8286;BME280;4181;43.416;24.598;2023-02-21T09:51:51;99776.38;;;25.14;100.00
8286;BME280;4181;43.416;24.598;2023-02-21T09:54:27;99759.88;;;25.09;100.00
8286;BME280;4181;43.416;24.598;2023-02-21T09:56:56;99774.44;;;25.02;100.00
8286;BME280;4181;43.416;24.598;2023-02-21T09:59:25;99759.31;;;25.31;100.00
8286;BME280;4181;43.416;24.598;2023-02-21T10:02:15;99750.81;;;25.28;100.00
8286;BME280;4181;43.416;24.598;2023-02-21T10:07:25;99738.88;;;25.43;100.00
8286;BME280;4181;43.416;24.598;2023-02-21T10:10:08;99734.38;;;25.69;100.00
8286;BME280;4181;43.416;24.598;2023-02-21T10:12:46;99729.06;;;25.64;100.00
8286;BME280;4181;43.416;24.598;2023-02-21T10:15:52;99708.22;;;25.77;100.00
8286;BME280;4181;43.416;24.598;2023-02-21T10:19:02;99726.81;;;25.54;100.00
8286;BME280;4181;43.416;24.598;2023-02-21T10:21:34;99715.81;;;25.61;100.00
8286;BME280;4181;43.416;24.598;2023-02-21T10:24:02;99700.66;;;25.62;100.00
8286;BME280;4181;43.416;24.598;2023-02-21T10:26:36;99683.22;;;25.65;100.00
8286;BME280;4181;43.416;24.598;2023-02-21T10:29:16;99694.28;;;25.46;100.00
8286;BME280;4181;43.416;24.598;2023-02-21T10:31:45;99707.66;;;25.10;100.00
8286;BME280;4181;43.416;24.598;2023-02-21T10:34:27;99714.53;;;24.45;100.00
8286;BME280;4181;43.416;24.598;2023-02-21T10:36:55;99705.34;;;24.05;100.00
8286;BME280;4181;43.416;24.598;2023-02-21T10:39:45;99701.59;;;23.89;100.00
8286;BME280;4181;43.416;24.598;2023-02-21T10:42:19;99701.38;;;23.82;100.00
8286;BME280;4181;43.416;24.598;2023-02-21T10:44:50;99694.16;;;23.93;100.00
8286;BME280;4181;43.416;24.598;2023-02-21T10:50:04;99671.81;;;24.29;100.00
8286;BME280;4181;43.416;24.598;2023-02-21T10:52:36;99660.97;;;24.67;100.00
8286;BME280;4181;43.416;24.598;2023-02-21T10:55:21;99656.75;;;24.85;100.00
8286;BME280;4181;43.416;24.598;2023-02-21T10:57:55;99667.03;;;25.12;100.00
8286;BME280;4181;43.416;24.598;2023-02-21T11:00:29;99656.56;;;25.09;100.00
8286;BME280;4181;43.416;24.598;2023-02-21T11:02:57;99660.78;;;24.87;100.00
8286;BME280;4181;43.416;24.598;2023-02-21T11:05:27;99658.44;;;24.89;100.00
8286;BME280;4181;43.416;24.598;2023-02-21T11:08:00;99631.72;;;25.04;100.00
8286;BME280;4181;43.416;24.598;2023-02-21T11:10:29;99625.41;;;25.07;100.00
8286;BME280;4181;43.416;24.598;2023-02-21T11:13:15;99635.31;;;25.05;100.00
8286;BME280;4181;43.416;24.598;2023-02-21T11:15:41;99627.84;;;24.93;100.00
8286;BME280;4181;43.416;24.598;2023-02-21T11:18:14;99631.22;;;24.71;100.00
8286;BME280;4181;43.416;24.598;2023-02-21T11:20:40;99636.22;;;24.38;100.00
8286;BME280;4181;43.416;24.598;2023-02-21T11:23:23;99642.78;;;24.30;100.00
8286;BME280;4181;43.416;24.598;2023-02-21T11:25:55;99637.22;;;24.18;100.00
8286;BME280;4181;43.416;24.598;2023-02-21T11:28:22;99629.00;;;24.09;100.00
8286;BME280;4181;43.416;24.598;2023-02-21T11:33:18;99632.75;;;24.01;100.00
8286;BME280;4181;43.416;24.598;2023-02-21T11:35:52;99616.97;;;23.93;100.00
8286;BME280;4181;43.416;24.598;2023-02-21T11:41:22;99624.63;;;23.84;100.00
8286;BME280;4181;43.416;24.598;2023-02-21T11:43:50;99626.41;;;23.52;100.00
8286;BME280;4181;43.416;24.598;2023-02-21T11:49:29;99627.75;;;22.98;100.00
8286;BME280;4181;43.416;24.598;2023-02-21T11:53:03;99635.28;;;22.98;100.00
8286;BME280;4181;43.416;24.598;2023-02-21T11:54:55;99612.03;;;22.70;100.00
8286;BME280;4181;43.416;24.598;2023-02-21T11:57:33;99628.66;;;22.78;100.00
8286;BME280;4181;43.416;24.598;2023-02-21T12:00:17;99626.66;;;22.79;100.00
8286;BME280;4181;43.416;24.598;2023-02-21T12:06:04;99610.38;;;23.13;100.00
8286;BME280;4181;43.416;24.598;2023-02-21T12:16:21;99568.88;;;23.96;100.00
8286;BME280;4181;43.416;24.598;2023-02-21T12:35:35;99562.47;;;23.96;100.00
8286;BME280;4181;43.416;24.598;2023-02-21T12:38:35;99572.00;;;24.07;100.00
8286;BME280;4181;43.416;24.598;2023-02-21T12:44:32;99554.09;;;24.08;100.00
8286;BME280;4181;43.416;24.598;2023-02-21T12:47:04;99561.13;;;24.02;100.00
8286;BME280;4181;43.416;24.598;2023-02-21T12:49:53;99573.41;;;24.01;100.00
8286;BME280;4181;43.416;24.598;2023-02-21T12:52:25;99589.78;;;24.02;100.00
8286;BME280;4181;43.416;24.598;2023-02-21T12:58:25;99587.81;;;23.91;100.00
8286;BME280;4181;43.416;24.598;2023-02-21T13:06:02;99592.00;;;23.85;100.00
8286;BME280;4181;43.416;24.598;2023-02-21T13:11:23;99583.69;;;23.48;100.00
8286;BME280;4181;43.416;24.598;2023-02-21T13:13:50;99566.53;;;23.22;100.00
8286;BME280;4181;43.416;24.598;2023-02-21T13:16:16;99563.97;;;23.17;100.00
8286;BME280;4181;43.416;24.598;2023-02-21T13:18:54;99591.44;;;23.07;100.00
8286;BME280;4181;43.416;24.598;2023-02-21T13:29:28;99595.47;;;22.73;100.00
8286;BME280;4181;43.416;24.598;2023-02-21T13:32:07;99594.78;;;22.76;100.00
8286;BME280;4181;43.416;24.598;2023-02-21T13:34:43;99579.69;;;22.65;100.00
8286;BME280;4181;43.416;24.598;2023-02-21T13:37:19;99588.28;;;22.72;100.00
8286;BME280;4181;43.416;24.598;2023-02-21T13:39:50;99589.78;;;22.82;100.00
8286;BME280;4181;43.416;24.598;2023-02-21T13:42:22;99598.03;;;22.90;100.00
8286;BME280;4181;43.416;24.598;2023-02-21T13:44:52;99579.72;;;22.77;100.00
8286;BME280;4181;43.416;24.598;2023-02-21T13:47:21;99569.94;;;22.59;100.00
8286;BME280;4181;43.416;24.598;2023-02-21T13:49:56;99584.09;;;22.66;100.00
8286;BME280;4181;43.416;24.598;2023-02-21T13:52:27;99592.31;;;22.63;100.00
8286;BME280;4181;43.416;24.598;2023-02-21T13:57:50;99584.19;;;22.58;100.00
8286;BME280;4181;43.416;24.598;2023-02-21T14:08:13;99588.59;;;22.26;100.00
8286;BME280;4181;43.416;24.598;2023-02-21T14:10:51;99597.41;;;22.28;100.00
8286;BME280;4181;43.416;24.598;2023-02-21T14:15:48;99599.00;;;22.29;100.00
8286;BME280;4181;43.416;24.598;2023-02-21T14:24:02;99588.97;;;22.36;100.00
8286;BME280;4181;43.416;24.598;2023-02-21T14:26:37;99589.06;;;22.28;100.00
8286;BME280;4181;43.416;24.598;2023-02-21T14:34:36;99608.66;;;22.11;100.00
8286;BME280;4181;43.416;24.598;2023-02-21T14:37:14;99600.53;;;22.06;100.00
8286;BME280;4181;43.416;24.598;2023-02-21T14:39:44;99598.72;;;21.89;100.00
8286;BME280;4181;43.416;24.598;2023-02-21T15:04:34;99594.03;;;20.85;100.00
8286;BME280;4181;43.416;24.598;2023-02-21T15:07:09;99606.88;;;20.90;100.00
8286;BME280;4181;43.416;24.598;2023-02-21T15:09:36;99587.03;;;20.79;100.00
8286;BME280;4181;43.416;24.598;2023-02-21T15:12:09;99605.47;;;20.75;100.00
8286;BME280;4181;43.416;24.598;2023-02-21T15:14:48;99604.97;;;20.73;100.00
8286;BME280;4181;43.416;24.598;2023-02-21T15:17:23;99614.78;;;20.71;100.00
8286;BME280;4181;43.416;24.598;2023-02-21T15:20:16;99604.84;;;20.61;100.00
8286;BME280;4181;43.416;24.598;2023-02-21T15:22:41;99624.28;;;20.53;100.00
8286;BME280;4181;43.416;24.598;2023-02-21T15:30:20;99611.28;;;20.36;100.00
8286;BME280;4181;43.416;24.598;2023-02-21T15:35:47;99620.88;;;20.13;100.00
8286;BME280;4181;43.416;24.598;2023-02-21T15:38:22;99623.63;;;20.04;100.00
8286;BME280;4181;43.416;24.598;2023-02-21T15:40:53;99608.66;;;19.88;100.00
8286;BME280;4181;43.416;24.598;2023-02-21T15:43:38;99616.78;;;19.85;100.00
8286;BME280;4181;43.416;24.598;2023-02-21T15:46:07;99616.16;;;19.79;100.00
8286;BME280;4181;43.416;24.598;2023-02-21T15:48:34;99624.75;;;19.78;100.00
8286;BME280;4181;43.416;24.598;2023-02-21T15:51:05;99643.50;;;19.81;100.00
8286;BME280;4181;43.416;24.598;2023-02-21T15:53:32;99608.31;;;19.56;100.00
8286;BME280;4181;43.416;24.598;2023-02-21T15:56:21;99631.41;;;19.60;100.00
8286;BME280;4181;43.416;24.598;2023-02-21T15:59:08;99636.44;;;19.58;100.00
8286;BME280;4181;43.416;24.598;2023-02-21T16:01:33;99633.81;;;19.53;100.00
8286;BME280;4181;43.416;24.598;2023-02-21T16:04:16;99638.25;;;19.54;100.00
8286;BME280;4181;43.416;24.598;2023-02-21T16:06:59;99625.66;;;19.31;100.00